MST,Max TemperatureF,Mean TemperatureF,Min TemperatureF,Max Dew PointF,MeanDew PointF,Min DewpointF,Max Humidity, Mean Humidity, Min Humidity, Max Sea Level PressureIn, Mean Sea Level PressureIn, Min Sea Level PressureIn, Max VisibilityMiles, Mean VisibilityMiles, Min VisibilityMiles, Max Wind SpeedMPH, Mean Wind SpeedMPH, Max Gust SpeedMPH,PrecipitationIn, CloudCover, Events, WindDirDegrees
2012-10-1,103,87,71,39,34,28,27,16,7,29.87,29.80,29.73,10,10,10,13,5,20,0.00,0,,31
2012-10-2,101,84,67,40,36,31,35,19,8,29.85,29.77,29.70,10,10,10,13,5,,0.00,0,,311
2012-10-3,99,82,66,45,41,36,37,22,12,29.89,29.82,29.75,10,10,10,13,4,,0.00,0,,216
2012-10-4,95,82,68,55,45,40,50,28,15,29.98,29.91,29.86,10,10,10,10,6,,0.00,0,,260
2012-10-5,93,78,63,46,41,30,43,28,10,29.98,29.89,29.82,10,10,9,8,4,,0.00,0,,336
2012-10-6,90,78,65,48,43,40,42,29,18,29.88,29.81,29.75,10,10,10,7,3,,0.00,0,,290
2012-10-7,92,80,67,47,44,40,46,30,16,29.86,29.79,29.75,10,10,10,10,4,,0.00,0,,340
2012-10-8,92,78,64,48,45,43,49,32,19,29.89,29.83,29.77,10,10,10,9,4,,0.00,0,,324
2012-10-9,90,78,66,53,50,47,50,37,25,29.92,29.84,29.77,10,10,10,7,2,,0.00,0,,306
2012-10-10,91,78,66,54,48,43,54,35,19,29.92,29.81,29.73,10,10,10,14,4,20,0.00,0,,250
2012-10-11,88,79,70,57,49,39,51,38,23,29.86,29.79,29.70,10,10,10,22,8,23,0.00,3,,210
2012-10-12,75,68,61,49,44,38,56,43,27,30.05,29.97,29.83,10,10,10,13,8,,0.00,3,,212
2012-10-13,81,68,55,43,40,38,56,37,22,30.15,30.05,29.96,10,10,10,8,4,,0.00,0,,28
2012-10-14,92,74,57,46,42,37,60,34,14,30.06,29.96,29.88,10,10,10,13,4,,0.00,0,,335
2012-10-15,93,78,64,42,38,32,39,25,11,29.93,29.85,29.78,10,9,5,10,5,,0.00,0,,347
2012-10-16,91,76,60,44,39,36,44,27,14,29.86,29.76,29.68,10,9,4,12,4,,0.00,0,,221
2012-10-17,92,76,60,44,41,35,50,29,15,29.86,29.80,29.74,10,10,10,14,5,,0.00,0,,360
2012-10-18,89,76,62,64,45,35,57,35,15,30.03,29.93,29.86,10,9,3,12,3,,0.00,0,,29
2012-10-19,91,76,60,44,40,34,43,27,16,29.92,29.83,29.74,10,10,10,15,5,,0.00,0,,309
2012-10-20,89,74,59,50,40,34,43,29,16,29.83,29.74,29.68,10,10,10,15,4,,0.00,0,,250
2012-10-21,86,74,61,55,50,45,55,41,28,29.81,29.76,29.72,10,10,10,15,6,,0.00,0,,238
2012-10-22,82,72,61,54,52,50,70,51,32,29.90,29.84,29.79,10,10,6,10,2,,0.00,0,,255
2012-10-23,82,71,60,58,50,45,67,45,31,29.88,29.81,29.76,10,10,10,9,4,,0.00,0,,244
2012-10-24,81,69,57,48,37,28,58,35,14,29.91,29.85,29.80,10,10,10,16,6,20,0.00,0,,268
2012-10-25,83,67,51,31,26,16,45,22,8,30.01,29.94,29.87,10,10,10,13,6,,0.00,0,,299
2012-10-26,83,72,59,24,18,11,24,14,7,30.05,29.95,29.87,10,10,4,28,15,33,0.00,0,,8
2012-10-27,84,68,52,32,24,19,28,20,11,29.97,29.89,29.83,10,10,10,12,8,,0.00,0,,348
2012-10-28,87,69,51,36,28,22,40,23,11,29.98,29.93,29.87,10,10,10,10,5,,0.00,0,,348
2012-10-29,88,70,52,38,30,26,38,26,11,30.08,30.01,29.97,10,10,10,9,4,,0.00,0,,359
2012-10-30,87,70,52,38,30,27,40,25,11,30.04,29.97,29.90,10,10,7,10,5,,0.00,0,,360
2012-10-31,86,68,52,33,30,26,45,27,11,30.03,29.97,29.89,10,9,1,8,4,,0.00,0,,15